sensor_id;sensor_type;location;lat;lon;timestamp;P1;durP1;ratioP1;P2;durP2;ratioP2
37407;SDS011;24866;50.248;8.252;2023-05-10T00:00:42;0.65;;;0.10;;
37407;SDS011;24866;50.248;8.252;2023-05-10T00:03:12;2.08;;;0.20;;
37407;SDS011;24866;50.248;8.252;2023-05-10T00:05:42;0.88;;;0.25;;
37407;SDS011;24866;50.248;8.252;2023-05-10T00:08:12;3.88;;;0.30;;
37407;SDS011;24866;50.248;8.252;2023-05-10T00:10:43;0.45;;;0.13;;
37407;SDS011;24866;50.248;8.252;2023-05-10T00:13:13;2.80;;;0.22;;
37407;SDS011;24866;50.248;8.252;2023-05-10T00:15:43;0.35;;;0.15;;
37407;SDS011;24866;50.248;8.252;2023-05-10T00:18:13;1.23;;;0.28;;
37407;SDS011;24866;50.248;8.252;2023-05-10T00:20:43;0.20;;;0.15;;
37407;SDS011;24866;50.248;8.252;2023-05-10T00:23:14;0.98;;;0.30;;
37407;SDS011;24866;50.248;8.252;2023-05-10T00:25:45;1.52;;;0.10;;
37407;SDS011;24866;50.248;8.252;2023-05-10T00:28:15;0.45;;;0.20;;
37407;SDS011;24866;50.248;8.252;2023-05-10T00:30:45;0.65;;;0.20;;
37407;SDS011;24866;50.248;8.252;2023-05-10T00:33:15;2.00;;;0.20;;
37407;SDS011;24866;50.248;8.252;2023-05-10T00:35:45;0.95;;;0.20;;
37407;SDS011;24866;50.248;8.252;2023-05-10T00:38:14;2.05;;;0.20;;
37407;SDS011;24866;50.248;8.252;2023-05-10T00:40:46;0.45;;;0.10;;
37407;SDS011;24866;50.248;8.252;2023-05-10T00:43:16;1.58;;;0.20;;
37407;SDS011;24866;50.248;8.252;2023-05-10T00:45:46;0.82;;;0.20;;
37407;SDS011;24866;50.248;8.252;2023-05-10T00:48:16;0.68;;;0.10;;
37407;SDS011;24866;50.248;8.252;2023-05-10T00:50:46;2.13;;;0.30;;
37407;SDS011;24866;50.248;8.252;2023-05-10T00:53:16;3.03;;;0.20;;
37407;SDS011;24866;50.248;8.252;2023-05-10T00:55:47;3.40;;;0.30;;
37407;SDS011;24866;50.248;8.252;2023-05-10T00:58:17;0.20;;;0.10;;
37407;SDS011;24866;50.248;8.252;2023-05-10T01:00:47;0.73;;;0.13;;
37407;SDS011;24866;50.248;8.252;2023-05-10T01:03:18;0.43;;;0.20;;
37407;SDS011;24866;50.248;8.252;2023-05-10T01:05:48;0.40;;;0.17;;
37407;SDS011;24866;50.248;8.252;2023-05-10T01:08:18;0.63;;;0.20;;
37407;SDS011;24866;50.248;8.252;2023-05-10T01:10:50;2.15;;;0.13;;
37407;SDS011;24866;50.248;8.252;2023-05-10T01:13:23;1.17;;;0.30;;
37407;SDS011;24866;50.248;8.252;2023-05-10T01:16:00;1.40;;;0.10;;
37407;SDS011;24866;50.248;8.252;2023-05-10T01:18:31;0.45;;;0.20;;
37407;SDS011;24866;50.248;8.252;2023-05-10T01:21:19;0.77;;;0.40;;
37407;SDS011;24866;50.248;8.252;2023-05-10T01:24:09;0.52;;;0.20;;
37407;SDS011;24866;50.248;8.252;2023-05-10T01:27:10;0.70;;;0.20;;
37407;SDS011;24866;50.248;8.252;2023-05-10T01:33:09;1.10;;;0.20;;
37407;SDS011;24866;50.248;8.252;2023-05-10T01:35:41;1.30;;;0.20;;
37407;SDS011;24866;50.248;8.252;2023-05-10T01:38:17;0.35;;;0.10;;
37407;SDS011;24866;50.248;8.252;2023-05-10T01:40:54;1.00;;;0.20;;
37407;SDS011;24866;50.248;8.252;2023-05-10T01:43:37;0.95;;;0.20;;
37407;SDS011;24866;50.248;8.252;2023-05-10T01:46:14;0.85;;;0.30;;
37407;SDS011;24866;50.248;8.252;2023-05-10T01:48:51;2.63;;;0.30;;
37407;SDS011;24866;50.248;8.252;2023-05-10T01:51:29;0.93;;;0.30;;
37407;SDS011;24866;50.248;8.252;2023-05-10T01:54:04;1.85;;;0.30;;
37407;SDS011;24866;50.248;8.252;2023-05-10T01:56:36;1.17;;;0.38;;
37407;SDS011;24866;50.248;8.252;2023-05-10T01:59:12;0.65;;;0.30;;
37407;SDS011;24866;50.248;8.252;2023-05-10T02:01:46;0.75;;;0.30;;
37407;SDS011;24866;50.248;8.252;2023-05-10T02:04:19;0.63;;;0.43;;
37407;SDS011;24866;50.248;8.252;2023-05-10T02:06:51;1.10;;;0.30;;
37407;SDS011;24866;50.248;8.252;2023-05-10T02:09:23;0.68;;;0.30;;
37407;SDS011;24866;50.248;8.252;2023-05-10T02:11:57;1.35;;;0.20;;
37407;SDS011;24866;50.248;8.252;2023-05-10T02:14:29;3.00;;;0.32;;
37407;SDS011;24866;50.248;8.252;2023-05-10T02:17:01;2.05;;;0.30;;
37407;SDS011;24866;50.248;8.252;2023-05-10T02:19:35;2.78;;;0.32;;
37407;SDS011;24866;50.248;8.252;2023-05-10T02:22:07;1.15;;;0.30;;
37407;SDS011;24866;50.248;8.252;2023-05-10T02:24:40;1.40;;;0.30;;
37407;SDS011;24866;50.248;8.252;2023-05-10T02:27:11;3.00;;;0.40;;
37407;SDS011;24866;50.248;8.252;2023-05-10T02:29:43;0.63;;;0.20;;
37407;SDS011;24866;50.248;8.252;2023-05-10T02:32:14;1.30;;;0.30;;
37407;SDS011;24866;50.248;8.252;2023-05-10T02:34:47;0.50;;;0.20;;
37407;SDS011;24866;50.248;8.252;2023-05-10T02:37:20;0.77;;;0.30;;
37407;SDS011;24866;50.248;8.252;2023-05-10T02:39:52;0.65;;;0.25;;
37407;SDS011;24866;50.248;8.252;2023-05-10T02:42:24;0.82;;;0.30;;
37407;SDS011;24866;50.248;8.252;2023-05-10T02:44:59;0.98;;;0.30;;
37407;SDS011;24866;50.248;8.252;2023-05-10T02:47:30;1.58;;;0.25;;
37407;SDS011;24866;50.248;8.252;2023-05-10T02:50:02;1.25;;;0.17;;
37407;SDS011;24866;50.248;8.252;2023-05-10T02:52:37;1.37;;;0.50;;
37407;SDS011;24866;50.248;8.252;2023-05-10T02:55:10;0.43;;;0.25;;
37407;SDS011;24866;50.248;8.252;2023-05-10T02:57:45;2.13;;;0.40;;
37407;SDS011;24866;50.248;8.252;2023-05-10T03:00:18;0.30;;;0.20;;
37407;SDS011;24866;50.248;8.252;2023-05-10T03:02:50;0.38;;;0.30;;
37407;SDS011;24866;50.248;8.252;2023-05-10T03:05:22;0.40;;;0.20;;
37407;SDS011;24866;50.248;8.252;2023-05-10T03:07:52;2.05;;;0.30;;
37407;SDS011;24866;50.248;8.252;2023-05-10T03:10:25;3.03;;;0.30;;
37407;SDS011;24866;50.248;8.252;2023-05-10T03:13:05;0.95;;;0.30;;
37407;SDS011;24866;50.248;8.252;2023-05-10T03:15:42;0.70;;;0.40;;
37407;SDS011;24866;50.248;8.252;2023-05-10T03:18:17;3.00;;;0.63;;
37407;SDS011;24866;50.248;8.252;2023-05-10T03:20:56;1.83;;;0.45;;
37407;SDS011;24866;50.248;8.252;2023-05-10T03:23:33;2.08;;;0.40;;
37407;SDS011;24866;50.248;8.252;2023-05-10T03:26:04;2.28;;;0.60;;
37407;SDS011;24866;50.248;8.252;2023-05-10T03:28:36;2.03;;;0.50;;
37407;SDS011;24866;50.248;8.252;2023-05-10T03:31:06;1.90;;;0.70;;
37407;SDS011;24866;50.248;8.252;2023-05-10T03:33:45;1.92;;;0.50;;
37407;SDS011;24866;50.248;8.252;2023-05-10T03:36:17;3.60;;;0.70;;
37407;SDS011;24866;50.248;8.252;2023-05-10T03:38:49;2.33;;;0.95;;
37407;SDS011;24866;50.248;8.252;2023-05-10T03:41:18;3.80;;;0.70;;
37407;SDS011;24866;50.248;8.252;2023-05-10T03:43:48;3.78;;;0.63;;
37407;SDS011;24866;50.248;8.252;2023-05-10T03:46:18;2.53;;;0.60;;
37407;SDS011;24866;50.248;8.252;2023-05-10T03:48:48;2.05;;;0.75;;
37407;SDS011;24866;50.248;8.252;2023-05-10T03:51:19;0.90;;;0.60;;
37407;SDS011;24866;50.248;8.252;2023-05-10T03:53:50;1.37;;;0.80;;
37407;SDS011;24866;50.248;8.252;2023-05-10T03:56:20;2.58;;;0.73;;
37407;SDS011;24866;50.248;8.252;2023-05-10T03:58:50;2.15;;;0.63;;
37407;SDS011;24866;50.248;8.252;2023-05-10T04:01:20;2.65;;;1.05;;
37407;SDS011;24866;50.248;8.252;2023-05-10T04:03:49;1.55;;;0.65;;
37407;SDS011;24866;50.248;8.252;2023-05-10T04:06:21;3.58;;;1.13;;
37407;SDS011;24866;50.248;8.252;2023-05-10T04:08:51;2.78;;;0.68;;
37407;SDS011;24866;50.248;8.252;2023-05-10T04:11:21;1.88;;;0.73;;
37407;SDS011;24866;50.248;8.252;2023-05-10T04:13:52;1.35;;;0.80;;
37407;SDS011;24866;50.248;8.252;2023-05-10T04:16:22;2.15;;;0.90;;
37407;SDS011;24866;50.248;8.252;2023-05-10T04:18:52;1.85;;;1.02;;
37407;SDS011;24866;50.248;8.252;2023-05-10T04:21:24;2.75;;;0.90;;
37407;SDS011;24866;50.248;8.252;2023-05-10T04:23:54;2.75;;;1.00;;
37407;SDS011;24866;50.248;8.252;2023-05-10T04:26:24;2.42;;;1.10;;
37407;SDS011;24866;50.248;8.252;2023-05-10T04:28:56;1.73;;;1.00;;
37407;SDS011;24866;50.248;8.252;2023-05-10T04:31:26;2.33;;;0.93;;
37407;SDS011;24866;50.248;8.252;2023-05-10T04:33:56;4.85;;;1.23;;
37407;SDS011;24866;50.248;8.252;2023-05-10T04:36:27;2.47;;;0.90;;
37407;SDS011;24866;50.248;8.252;2023-05-10T04:38:57;4.80;;;1.27;;
37407;SDS011;24866;50.248;8.252;2023-05-10T04:41:27;2.85;;;0.93;;
37407;SDS011;24866;50.248;8.252;2023-05-10T04:43:57;1.48;;;1.02;;
37407;SDS011;24866;50.248;8.252;2023-05-10T04:46:27;2.58;;;1.02;;
37407;SDS011;24866;50.248;8.252;2023-05-10T04:48:56;2.22;;;1.00;;
37407;SDS011;24866;50.248;8.252;2023-05-10T04:51:29;3.28;;;1.40;;
37407;SDS011;24866;50.248;8.252;2023-05-10T04:53:59;1.67;;;0.90;;
37407;SDS011;24866;50.248;8.252;2023-05-10T04:56:29;4.30;;;0.90;;
37407;SDS011;24866;50.248;8.252;2023-05-10T04:58:59;2.15;;;1.45;;
37407;SDS011;24866;50.248;8.252;2023-05-10T05:01:29;2.97;;;1.17;;
37407;SDS011;24866;50.248;8.252;2023-05-10T05:03:59;2.33;;;0.93;;
37407;SDS011;24866;50.248;8.252;2023-05-10T05:06:31;4.35;;;1.25;;
37407;SDS011;24866;50.248;8.252;2023-05-10T05:09:01;3.10;;;1.15;;
37407;SDS011;24866;50.248;8.252;2023-05-10T05:11:31;4.70;;;1.63;;
37407;SDS011;24866;50.248;8.252;2023-05-10T05:14:01;4.20;;;1.35;;
37407;SDS011;24866;50.248;8.252;2023-05-10T05:16:30;2.97;;;1.42;;
37407;SDS011;24866;50.248;8.252;2023-05-10T05:19:00;2.60;;;1.00;;
37407;SDS011;24866;50.248;8.252;2023-05-10T05:21:32;4.47;;;1.48;;
37407;SDS011;24866;50.248;8.252;2023-05-10T05:24:03;3.43;;;1.20;;
37407;SDS011;24866;50.248;8.252;2023-05-10T05:26:33;5.00;;;1.60;;
37407;SDS011;24866;50.248;8.252;2023-05-10T05:29:03;2.42;;;1.40;;
37407;SDS011;24866;50.248;8.252;2023-05-10T05:31:33;3.05;;;1.38;;
37407;SDS011;24866;50.248;8.252;2023-05-10T05:34:03;3.25;;;1.45;;
37407;SDS011;24866;50.248;8.252;2023-05-10T05:36:36;2.08;;;1.17;;
37407;SDS011;24866;50.248;8.252;2023-05-10T05:39:07;2.65;;;0.85;;
37407;SDS011;24866;50.248;8.252;2023-05-10T05:41:37;4.63;;;1.52;;
37407;SDS011;24866;50.248;8.252;2023-05-10T05:44:07;2.15;;;1.50;;
37407;SDS011;24866;50.248;8.252;2023-05-10T05:46:38;2.58;;;1.52;;
37407;SDS011;24866;50.248;8.252;2023-05-10T05:49:08;2.55;;;1.63;;
37407;SDS011;24866;50.248;8.252;2023-05-10T05:51:39;5.95;;;1.60;;
37407;SDS011;24866;50.248;8.252;2023-05-10T05:54:10;5.22;;;1.13;;
37407;SDS011;24866;50.248;8.252;2023-05-10T05:56:40;2.95;;;1.17;;
37407;SDS011;24866;50.248;8.252;2023-05-10T05:59:10;4.20;;;1.75;;
37407;SDS011;24866;50.248;8.252;2023-05-10T06:01:40;1.73;;;1.15;;
37407;SDS011;24866;50.248;8.252;2023-05-10T06:04:10;4.50;;;1.50;;
37407;SDS011;24866;50.248;8.252;2023-05-10T06:06:41;3.00;;;1.00;;
37407;SDS011;24866;50.248;8.252;2023-05-10T06:09:11;3.38;;;1.10;;
37407;SDS011;24866;50.248;8.252;2023-05-10T06:11:41;2.88;;;1.27;;
37407;SDS011;24866;50.248;8.252;2023-05-10T06:14:11;1.52;;;0.85;;
37407;SDS011;24866;50.248;8.252;2023-05-10T06:16:41;1.42;;;1.00;;
37407;SDS011;24866;50.248;8.252;2023-05-10T06:19:11;2.90;;;0.90;;
37407;SDS011;24866;50.248;8.252;2023-05-10T06:21:44;1.33;;;0.85;;
37407;SDS011;24866;50.248;8.252;2023-05-10T06:24:14;4.63;;;1.25;;
37407;SDS011;24866;50.248;8.252;2023-05-10T06:26:44;5.60;;;1.40;;
37407;SDS011;24866;50.248;8.252;2023-05-10T06:29:14;1.80;;;1.00;;
37407;SDS011;24866;50.248;8.252;2023-05-10T06:31:44;2.97;;;1.30;;
37407;SDS011;24866;50.248;8.252;2023-05-10T06:34:14;2.55;;;1.05;;
37407;SDS011;24866;50.248;8.252;2023-05-10T06:36:45;2.88;;;1.20;;
37407;SDS011;24866;50.248;8.252;2023-05-10T06:39:15;2.85;;;1.23;;
37407;SDS011;24866;50.248;8.252;2023-05-10T06:41:45;3.72;;;1.40;;
37407;SDS011;24866;50.248;8.252;2023-05-10T06:44:15;2.88;;;1.58;;
37407;SDS011;24866;50.248;8.252;2023-05-10T06:46:45;3.03;;;1.15;;
37407;SDS011;24866;50.248;8.252;2023-05-10T06:49:15;4.53;;;1.25;;
37407;SDS011;24866;50.248;8.252;2023-05-10T06:51:47;3.88;;;1.20;;
37407;SDS011;24866;50.248;8.252;2023-05-10T06:54:19;6.45;;;1.60;;
37407;SDS011;24866;50.248;8.252;2023-05-10T06:56:49;1.58;;;1.20;;
37407;SDS011;24866;50.248;8.252;2023-05-10T06:59:18;3.45;;;1.30;;
37407;SDS011;24866;50.248;8.252;2023-05-10T07:01:49;3.08;;;1.27;;
37407;SDS011;24866;50.248;8.252;2023-05-10T07:04:21;5.03;;;1.65;;
37407;SDS011;24866;50.248;8.252;2023-05-10T07:06:52;4.43;;;1.47;;
37407;SDS011;24866;50.248;8.252;2023-05-10T07:09:22;8.02;;;1.85;;
37407;SDS011;24866;50.248;8.252;2023-05-10T07:11:53;2.47;;;1.40;;
37407;SDS011;24866;50.248;8.252;2023-05-10T07:14:23;4.55;;;1.40;;
37407;SDS011;24866;50.248;8.252;2023-05-10T07:16:53;2.72;;;1.38;;
37407;SDS011;24866;50.248;8.252;2023-05-10T07:19:23;2.17;;;1.33;;
37407;SDS011;24866;50.248;8.252;2023-05-10T07:21:55;8.10;;;1.58;;
37407;SDS011;24866;50.248;8.252;2023-05-10T07:26:55;1.83;;;1.20;;
37407;SDS011;24866;50.248;8.252;2023-05-10T07:29:25;2.97;;;1.27;;
37407;SDS011;24866;50.248;8.252;2023-05-10T07:31:55;2.60;;;1.40;;
37407;SDS011;24866;50.248;8.252;2023-05-10T07:34:25;4.45;;;1.30;;
37407;SDS011;24866;50.248;8.252;2023-05-10T07:36:57;6.00;;;2.38;;
37407;SDS011;24866;50.248;8.252;2023-05-10T07:39:28;2.88;;;1.42;;
37407;SDS011;24866;50.248;8.252;2023-05-10T07:41:58;4.07;;;1.92;;
37407;SDS011;24866;50.248;8.252;2023-05-10T07:44:27;3.95;;;1.92;;
37407;SDS011;24866;50.248;8.252;2023-05-10T07:46:59;4.00;;;1.92;;
37407;SDS011;24866;50.248;8.252;2023-05-10T07:49:29;3.25;;;1.60;;
37407;SDS011;24866;50.248;8.252;2023-05-10T07:52:00;6.35;;;2.00;;
37407;SDS011;24866;50.248;8.252;2023-05-10T07:57:13;6.53;;;1.95;;
37407;SDS011;24866;50.248;8.252;2023-05-10T08:02:15;5.80;;;2.00;;
37407;SDS011;24866;50.248;8.252;2023-05-10T08:04:45;4.43;;;1.90;;
37407;SDS011;24866;50.248;8.252;2023-05-10T08:07:18;3.70;;;1.80;;
37407;SDS011;24866;50.248;8.252;2023-05-10T08:09:48;5.20;;;1.50;;
37407;SDS011;24866;50.248;8.252;2023-05-10T08:12:18;5.15;;;1.92;;
37407;SDS011;24866;50.248;8.252;2023-05-10T08:14:50;4.03;;;1.98;;
37407;SDS011;24866;50.248;8.252;2023-05-10T08:17:20;5.45;;;2.20;;
37407;SDS011;24866;50.248;8.252;2023-05-10T08:19:50;7.38;;;2.10;;
37407;SDS011;24866;50.248;8.252;2023-05-10T08:22:21;5.68;;;1.52;;
37407;SDS011;24866;50.248;8.252;2023-05-10T08:24:51;4.57;;;1.67;;
37407;SDS011;24866;50.248;8.252;2023-05-10T08:27:21;5.97;;;2.28;;
37407;SDS011;24866;50.248;8.252;2023-05-10T08:29:51;4.90;;;1.75;;
37407;SDS011;24866;50.248;8.252;2023-05-10T08:32:21;7.07;;;2.22;;
37407;SDS011;24866;50.248;8.252;2023-05-10T08:34:51;4.95;;;1.90;;
37407;SDS011;24866;50.248;8.252;2023-05-10T08:37:22;5.70;;;1.92;;
37407;SDS011;24866;50.248;8.252;2023-05-10T08:39:53;4.73;;;1.80;;
37407;SDS011;24866;50.248;8.252;2023-05-10T08:42:23;13.18;;;2.05;;
37407;SDS011;24866;50.248;8.252;2023-05-10T08:44:56;5.85;;;1.73;;
37407;SDS011;24866;50.248;8.252;2023-05-10T08:47:28;10.95;;;2.78;;
37407;SDS011;24866;50.248;8.252;2023-05-10T08:49:59;5.80;;;1.77;;
37407;SDS011;24866;50.248;8.252;2023-05-10T08:52:33;4.65;;;1.92;;
37407;SDS011;24866;50.248;8.252;2023-05-10T08:55:10;6.75;;;2.05;;
37407;SDS011;24866;50.248;8.252;2023-05-10T08:57:40;8.40;;;1.65;;
37407;SDS011;24866;50.248;8.252;2023-05-10T09:00:11;5.43;;;2.33;;
37407;SDS011;24866;50.248;8.252;2023-05-10T09:05:17;6.60;;;1.80;;
37407;SDS011;24866;50.248;8.252;2023-05-10T09:07:51;3.63;;;1.23;;
37407;SDS011;24866;50.248;8.252;2023-05-10T09:10:21;2.95;;;1.27;;
37407;SDS011;24866;50.248;8.252;2023-05-10T09:12:55;6.30;;;1.73;;
37407;SDS011;24866;50.248;8.252;2023-05-10T09:15:26;5.95;;;1.80;;
37407;SDS011;24866;50.248;8.252;2023-05-10T09:17:56;3.10;;;1.40;;
37407;SDS011;24866;50.248;8.252;2023-05-10T09:20:27;3.30;;;1.10;;
37407;SDS011;24866;50.248;8.252;2023-05-10T09:22:59;5.45;;;1.38;;
37407;SDS011;24866;50.248;8.252;2023-05-10T09:25:29;5.25;;;1.80;;
37407;SDS011;24866;50.248;8.252;2023-05-10T09:28:01;5.20;;;1.55;;
37407;SDS011;24866;50.248;8.252;2023-05-10T09:30:35;4.65;;;1.73;;
37407;SDS011;24866;50.248;8.252;2023-05-10T09:33:05;3.78;;;1.58;;
37407;SDS011;24866;50.248;8.252;2023-05-10T09:35:36;3.35;;;1.38;;
37407;SDS011;24866;50.248;8.252;2023-05-10T09:38:09;3.00;;;1.67;;
37407;SDS011;24866;50.248;8.252;2023-05-10T09:40:39;2.95;;;1.70;;
37407;SDS011;24866;50.248;8.252;2023-05-10T09:43:09;4.45;;;1.30;;
37407;SDS011;24866;50.248;8.252;2023-05-10T09:45:40;4.75;;;1.65;;
37407;SDS011;24866;50.248;8.252;2023-05-10T09:48:10;1.52;;;0.88;;
37407;SDS011;24866;50.248;8.252;2023-05-10T09:50:40;4.20;;;1.40;;
37407;SDS011;24866;50.248;8.252;2023-05-10T09:53:12;3.13;;;1.15;;
37407;SDS011;24866;50.248;8.252;2023-05-10T09:55:45;4.30;;;1.23;;
37407;SDS011;24866;50.248;8.252;2023-05-10T10:00:47;2.58;;;0.63;;
37407;SDS011;24866;50.248;8.252;2023-05-10T10:03:20;1.77;;;0.80;;
37407;SDS011;24866;50.248;8.252;2023-05-10T10:05:52;1.00;;;0.30;;
37407;SDS011;24866;50.248;8.252;2023-05-10T10:08:25;1.80;;;0.50;;
37407;SDS011;24866;50.248;8.252;2023-05-10T10:10:55;1.50;;;0.80;;
37407;SDS011;24866;50.248;8.252;2023-05-10T10:13:26;1.80;;;0.30;;
37407;SDS011;24866;50.248;8.252;2023-05-10T10:15:56;2.85;;;0.57;;
37407;SDS011;24866;50.248;8.252;2023-05-10T10:18:26;1.27;;;0.50;;
37407;SDS011;24866;50.248;8.252;2023-05-10T10:20:56;2.30;;;0.55;;
37407;SDS011;24866;50.248;8.252;2023-05-10T10:23:28;1.15;;;0.30;;
37407;SDS011;24866;50.248;8.252;2023-05-10T10:25:58;1.65;;;0.32;;
37407;SDS011;24866;50.248;8.252;2023-05-10T10:28:31;1.55;;;0.43;;
37407;SDS011;24866;50.248;8.252;2023-05-10T10:31:12;2.08;;;0.60;;
37407;SDS011;24866;50.248;8.252;2023-05-10T10:33:51;3.03;;;0.30;;
37407;SDS011;24866;50.248;8.252;2023-05-10T10:36:28;0.70;;;0.40;;
37407;SDS011;24866;50.248;8.252;2023-05-10T10:39:01;2.83;;;0.40;;
37407;SDS011;24866;50.248;8.252;2023-05-10T10:41:32;1.98;;;0.47;;
37407;SDS011;24866;50.248;8.252;2023-05-10T10:44:22;3.67;;;0.45;;
37407;SDS011;24866;50.248;8.252;2023-05-10T10:47:21;2.28;;;0.35;;
37407;SDS011;24866;50.248;8.252;2023-05-10T10:50:03;1.90;;;0.47;;
37407;SDS011;24866;50.248;8.252;2023-05-10T10:55:13;2.33;;;0.30;;
37407;SDS011;24866;50.248;8.252;2023-05-10T10:57:47;3.30;;;0.50;;
37407;SDS011;24866;50.248;8.252;2023-05-10T11:00:24;1.92;;;0.30;;
37407;SDS011;24866;50.248;8.252;2023-05-10T11:02:59;2.75;;;0.38;;
37407;SDS011;24866;50.248;8.252;2023-05-10T11:05:38;4.47;;;0.60;;
37407;SDS011;24866;50.248;8.252;2023-05-10T11:08:13;1.02;;;0.40;;
37407;SDS011;24866;50.248;8.252;2023-05-10T11:10:53;1.05;;;0.35;;
37407;SDS011;24866;50.248;8.252;2023-05-10T11:13:33;1.48;;;0.50;;
37407;SDS011;24866;50.248;8.252;2023-05-10T11:16:11;4.72;;;0.50;;
37407;SDS011;24866;50.248;8.252;2023-05-10T11:18:52;1.70;;;0.40;;
37407;SDS011;24866;50.248;8.252;2023-05-10T11:21:27;1.55;;;0.50;;
37407;SDS011;24866;50.248;8.252;2023-05-10T11:23:58;1.25;;;0.38;;
37407;SDS011;24866;50.248;8.252;2023-05-10T11:26:31;0.93;;;0.47;;
37407;SDS011;24866;50.248;8.252;2023-05-10T11:29:07;7.03;;;1.70;;
37407;SDS011;24866;50.248;8.252;2023-05-10T11:31:41;1.98;;;0.40;;
37407;SDS011;24866;50.248;8.252;2023-05-10T11:34:22;1.65;;;0.30;;
37407;SDS011;24866;50.248;8.252;2023-05-10T11:36:53;0.50;;;0.30;;
37407;SDS011;24866;50.248;8.252;2023-05-10T11:39:25;1.98;;;0.40;;
37407;SDS011;24866;50.248;8.252;2023-05-10T11:41:58;1.63;;;0.40;;
37407;SDS011;24866;50.248;8.252;2023-05-10T11:44:28;2.20;;;0.60;;
37407;SDS011;24866;50.248;8.252;2023-05-10T11:46:59;4.20;;;0.70;;
37407;SDS011;24866;50.248;8.252;2023-05-10T11:49:29;0.63;;;0.40;;
37407;SDS011;24866;50.248;8.252;2023-05-10T11:52:09;0.73;;;0.20;;
37407;SDS011;24866;50.248;8.252;2023-05-10T11:54:44;2.35;;;0.30;;
37407;SDS011;24866;50.248;8.252;2023-05-10T11:57:17;0.70;;;0.40;;
37407;SDS011;24866;50.248;8.252;2023-05-10T12:02:22;2.50;;;0.30;;
37407;SDS011;24866;50.248;8.252;2023-05-10T12:04:56;0.38;;;0.15;;
37407;SDS011;24866;50.248;8.252;2023-05-10T12:07:26;2.05;;;0.65;;
37407;SDS011;24866;50.248;8.252;2023-05-10T12:10:05;1.75;;;0.30;;
37407;SDS011;24866;50.248;8.252;2023-05-10T12:12:38;0.50;;;0.20;;
37407;SDS011;24866;50.248;8.252;2023-05-10T12:15:12;0.65;;;0.22;;
37407;SDS011;24866;50.248;8.252;2023-05-10T12:17:47;2.92;;;0.50;;
37407;SDS011;24866;50.248;8.252;2023-05-10T12:20:18;0.60;;;0.35;;
37407;SDS011;24866;50.248;8.252;2023-05-10T12:22:50;1.17;;;0.30;;
37407;SDS011;24866;50.248;8.252;2023-05-10T12:25:22;0.70;;;0.30;;
37407;SDS011;24866;50.248;8.252;2023-05-10T12:27:55;1.85;;;0.30;;
37407;SDS011;24866;50.248;8.252;2023-05-10T12:30:27;2.25;;;0.20;;
37407;SDS011;24866;50.248;8.252;2023-05-10T12:33:01;0.40;;;0.10;;
37407;SDS011;24866;50.248;8.252;2023-05-10T12:35:32;2.72;;;0.30;;
37407;SDS011;24866;50.248;8.252;2023-05-10T12:40:59;2.30;;;0.30;;
37407;SDS011;24866;50.248;8.252;2023-05-10T12:43:31;1.65;;;0.25;;
37407;SDS011;24866;50.248;8.252;2023-05-10T12:46:05;1.58;;;0.40;;
37407;SDS011;24866;50.248;8.252;2023-05-10T12:48:36;1.55;;;0.30;;
37407;SDS011;24866;50.248;8.252;2023-05-10T12:51:07;1.10;;;0.50;;
37407;SDS011;24866;50.248;8.252;2023-05-10T12:53:39;1.95;;;0.30;;
37407;SDS011;24866;50.248;8.252;2023-05-10T12:56:09;0.77;;;0.30;;
37407;SDS011;24866;50.248;8.252;2023-05-10T12:58:41;5.63;;;0.50;;
37407;SDS011;24866;50.248;8.252;2023-05-10T13:01:16;2.53;;;0.20;;
37407;SDS011;24866;50.248;8.252;2023-05-10T13:03:46;1.65;;;0.25;;
37407;SDS011;24866;50.248;8.252;2023-05-10T13:06:15;2.45;;;0.50;;
37407;SDS011;24866;50.248;8.252;2023-05-10T13:08:46;0.50;;;0.30;;
37407;SDS011;24866;50.248;8.252;2023-05-10T13:11:16;2.88;;;0.73;;
37407;SDS011;24866;50.248;8.252;2023-05-10T13:13:49;3.20;;;0.60;;
37407;SDS011;24866;50.248;8.252;2023-05-10T13:16:19;0.55;;;0.40;;
37407;SDS011;24866;50.248;8.252;2023-05-10T13:18:49;1.95;;;0.40;;
37407;SDS011;24866;50.248;8.252;2023-05-10T13:21:19;2.97;;;0.30;;
37407;SDS011;24866;50.248;8.252;2023-05-10T13:23:48;1.92;;;0.30;;
37407;SDS011;24866;50.248;8.252;2023-05-10T13:26:18;4.32;;;0.40;;
37407;SDS011;24866;50.248;8.252;2023-05-10T13:28:50;0.93;;;0.38;;
37407;SDS011;24866;50.248;8.252;2023-05-10T13:31:20;2.17;;;0.40;;
37407;SDS011;24866;50.248;8.252;2023-05-10T13:33:50;1.52;;;0.68;;
37407;SDS011;24866;50.248;8.252;2023-05-10T13:36:20;1.17;;;0.63;;
37407;SDS011;24866;50.248;8.252;2023-05-10T13:38:50;2.05;;;0.43;;
37407;SDS011;24866;50.248;8.252;2023-05-10T13:41:21;1.75;;;0.38;;
37407;SDS011;24866;50.248;8.252;2023-05-10T13:43:52;2.20;;;0.40;;
37407;SDS011;24866;50.248;8.252;2023-05-10T13:46:22;1.80;;;0.50;;
37407;SDS011;24866;50.248;8.252;2023-05-10T13:48:52;1.23;;;0.45;;
37407;SDS011;24866;50.248;8.252;2023-05-10T13:51:22;2.95;;;0.30;;
37407;SDS011;24866;50.248;8.252;2023-05-10T13:53:52;1.92;;;0.50;;
37407;SDS011;24866;50.248;8.252;2023-05-10T13:56:22;2.25;;;0.52;;
37407;SDS011;24866;50.248;8.252;2023-05-10T13:58:54;1.63;;;0.45;;
37407;SDS011;24866;50.248;8.252;2023-05-10T14:01:26;1.10;;;0.50;;
37407;SDS011;24866;50.248;8.252;2023-05-10T14:03:55;1.75;;;0.55;;
37407;SDS011;24866;50.248;8.252;2023-05-10T14:06:25;2.90;;;0.57;;
37407;SDS011;24866;50.248;8.252;2023-05-10T14:08:56;1.00;;;0.50;;
37407;SDS011;24866;50.248;8.252;2023-05-10T14:11:26;2.85;;;0.90;;
37407;SDS011;24866;50.248;8.252;2023-05-10T14:13:57;1.50;;;0.77;;
37407;SDS011;24866;50.248;8.252;2023-05-10T14:16:27;1.48;;;0.40;;
37407;SDS011;24866;50.248;8.252;2023-05-10T14:18:57;2.10;;;0.60;;
37407;SDS011;24866;50.248;8.252;2023-05-10T14:21:27;2.33;;;0.65;;
37407;SDS011;24866;50.248;8.252;2023-05-10T14:23:59;1.85;;;0.50;;
37407;SDS011;24866;50.248;8.252;2023-05-10T14:26:29;2.10;;;0.40;;
37407;SDS011;24866;50.248;8.252;2023-05-10T14:29:01;2.25;;;0.60;;
37407;SDS011;24866;50.248;8.252;2023-05-10T14:31:31;1.38;;;0.43;;
37407;SDS011;24866;50.248;8.252;2023-05-10T14:34:01;0.50;;;0.32;;
37407;SDS011;24866;50.248;8.252;2023-05-10T14:36:31;2.45;;;0.60;;
37407;SDS011;24866;50.248;8.252;2023-05-10T14:39:01;1.50;;;0.50;;
37407;SDS011;24866;50.248;8.252;2023-05-10T14:41:31;1.05;;;0.38;;
37407;SDS011;24866;50.248;8.252;2023-05-10T14:44:03;2.70;;;0.47;;
37407;SDS011;24866;50.248;8.252;2023-05-10T14:46:33;3.55;;;0.70;;
37407;SDS011;24866;50.248;8.252;2023-05-10T14:49:03;0.95;;;0.40;;
37407;SDS011;24866;50.248;8.252;2023-05-10T14:51:33;1.23;;;0.40;;
37407;SDS011;24866;50.248;8.252;2023-05-10T14:54:04;1.35;;;0.65;;
37407;SDS011;24866;50.248;8.252;2023-05-10T14:56:34;5.53;;;0.65;;
37407;SDS011;24866;50.248;8.252;2023-05-10T14:59:06;0.95;;;0.40;;
37407;SDS011;24866;50.248;8.252;2023-05-10T15:01:39;1.33;;;0.50;;
37407;SDS011;24866;50.248;8.252;2023-05-10T15:04:10;4.18;;;0.70;;
37407;SDS011;24866;50.248;8.252;2023-05-10T15:06:41;1.27;;;0.60;;
37407;SDS011;24866;50.248;8.252;2023-05-10T15:09:11;2.65;;;0.60;;
37407;SDS011;24866;50.248;8.252;2023-05-10T15:11:40;1.13;;;0.50;;
37407;SDS011;24866;50.248;8.252;2023-05-10T15:14:12;2.92;;;0.30;;
37407;SDS011;24866;50.248;8.252;2023-05-10T15:16:42;1.48;;;0.47;;
37407;SDS011;24866;50.248;8.252;2023-05-10T15:19:12;1.75;;;0.63;;
37407;SDS011;24866;50.248;8.252;2023-05-10T15:21:42;3.17;;;0.57;;
37407;SDS011;24866;50.248;8.252;2023-05-10T15:24:12;1.77;;;0.38;;
37407;SDS011;24866;50.248;8.252;2023-05-10T15:26:42;1.08;;;0.50;;
37407;SDS011;24866;50.248;8.252;2023-05-10T15:29:16;1.05;;;0.60;;
37407;SDS011;24866;50.248;8.252;2023-05-10T15:31:48;1.65;;;0.50;;
37407;SDS011;24866;50.248;8.252;2023-05-10T15:34:18;3.50;;;0.50;;
37407;SDS011;24866;50.248;8.252;2023-05-10T15:36:48;2.00;;;0.68;;
37407;SDS011;24866;50.248;8.252;2023-05-10T15:39:18;3.25;;;0.60;;